createdAt,value
2022-08-11T00:01:02.083Z,0
2022-08-11T00:05:44.389Z,0
2022-08-11T00:10:26.595Z,0
2022-08-11T00:15:08.907Z,0
2022-08-11T00:19:51.216Z,0
2022-08-11T00:24:33.420Z,0
2022-08-11T00:29:15.729Z,0
2022-08-11T00:33:58.037Z,0
2022-08-11T00:38:40.368Z,0
2022-08-11T00:43:22.550Z,0
2022-08-11T00:48:04.862Z,0
2022-08-11T00:52:47.174Z,0
2022-08-11T00:57:29.376Z,0
2022-08-11T01:02:10.679Z,0
2022-08-11T01:06:52.989Z,0
2022-08-11T01:11:35.297Z,0
2022-08-11T01:16:17.502Z,0
2022-08-11T01:20:59.809Z,0
2022-08-11T01:30:24.425Z,0
2022-08-11T01:35:06.640Z,0
2022-08-11T01:39:47.937Z,0
2022-08-11T01:44:29.246Z,0
2022-08-11T01:49:11.557Z,0
2022-08-11T01:53:53.869Z,0
2022-08-11T01:58:36.069Z,0
2022-08-11T02:03:18.380Z,0
2022-08-11T02:08:00.685Z,0
2022-08-11T02:12:42.891Z,0
2022-08-11T02:17:25.199Z,0
2022-08-11T02:22:06.512Z,0
2022-08-11T02:26:47.823Z,0
2022-08-11T02:31:29.118Z,0
2022-08-11T02:36:10.425Z,0
2022-08-11T02:40:51.735Z,0
2022-08-11T02:45:33.038Z,0
2022-08-11T02:50:15.343Z,0
2022-08-11T02:54:57.551Z,0
2022-08-11T02:59:39.861Z,0
2022-08-11T03:04:22.167Z,0
2022-08-11T03:09:04.418Z,0
2022-08-11T03:13:46.738Z,0
2022-08-11T03:18:28.945Z,0
2022-08-11T03:23:11.251Z,0
2022-08-11T03:27:53.558Z,0
2022-08-11T03:32:35.865Z,0
2022-08-11T03:37:18.088Z,0
2022-08-11T03:42:00.332Z,0
2022-08-11T03:46:41.634Z,0
2022-08-11T03:51:23.947Z,0
2022-08-11T03:56:06.259Z,5
2022-08-11T04:00:48.464Z,5
2022-08-11T04:05:30.780Z,11
2022-08-11T04:10:13.074Z,16
2022-08-11T04:14:55.386Z,22
2022-08-11T04:19:36.690Z,28
2022-08-11T04:24:17.996Z,33
2022-08-11T04:28:59.315Z,45
2022-08-11T04:33:40.524Z,50
2022-08-11T04:38:21.817Z,56
2022-08-11T04:43:03.121Z,61
2022-08-11T04:47:45.429Z,67
2022-08-11T04:52:27.733Z,73
2022-08-11T04:57:09.941Z,78
2022-08-11T05:01:52.284Z,84
2022-08-11T05:06:34.556Z,90
2022-08-11T05:11:16.872Z,90
2022-08-11T05:15:59.076Z,95
2022-08-11T05:20:41.380Z,101
2022-08-11T05:25:23.687Z,101
2022-08-11T05:30:05.897Z,106
2022-08-11T05:34:48.212Z,112
2022-08-11T05:39:30.513Z,112
2022-08-11T05:44:11.817Z,118
2022-08-11T05:48:54.039Z,118
2022-08-11T05:53:36.336Z,123
2022-08-11T05:58:18.640Z,123
2022-08-11T06:03:00.950Z,123
2022-08-11T06:07:43.159Z,129
2022-08-11T06:12:25.483Z,135
2022-08-11T06:17:06.775Z,140
2022-08-11T06:21:48.081Z,140
2022-08-11T06:26:29.387Z,146
2022-08-11T06:31:10.694Z,146
2022-08-11T06:35:52.995Z,146
2022-08-11T06:40:35.224Z,140
2022-08-11T06:45:17.513Z,151
2022-08-11T06:49:59.818Z,157
2022-08-11T06:54:42.040Z,163
2022-08-11T06:59:24.338Z,163
2022-08-11T07:04:06.642Z,163
2022-08-11T07:08:48.960Z,168
2022-08-11T07:13:31.160Z,168
2022-08-11T07:18:13.468Z,168
2022-08-11T07:22:55.788Z,174
2022-08-11T07:27:37.983Z,180
2022-08-11T07:32:19.319Z,180
2022-08-11T07:37:01.594Z,185
2022-08-11T07:41:43.904Z,708
2022-08-11T07:46:26.115Z,208
2022-08-11T07:51:08.417Z,196
2022-08-11T07:55:50.728Z,202
2022-08-11T08:00:33.045Z,202
2022-08-11T08:05:14.341Z,219
2022-08-11T08:09:55.552Z,213
2022-08-11T08:14:37.854Z,213
2022-08-11T08:19:20.195Z,219
2022-08-11T08:24:02.471Z,219
2022-08-11T08:28:44.683Z,225
2022-08-11T08:33:26.987Z,225
2022-08-11T08:38:09.306Z,230
2022-08-11T08:42:51.523Z,236
2022-08-11T08:47:33.814Z,236
2022-08-11T08:52:16.153Z,410
2022-08-11T08:56:58.430Z,264
2022-08-11T09:01:40.641Z,461
2022-08-11T09:06:22.940Z,320
2022-08-11T09:11:04.253Z,298
2022-08-11T09:15:46.563Z,270
2022-08-11T09:20:28.768Z,286
2022-08-11T09:25:11.077Z,343
2022-08-11T09:29:52.379Z,298
2022-08-11T09:34:34.687Z,309
2022-08-11T09:39:16.898Z,320
2022-08-11T09:43:58.202Z,320
2022-08-11T09:48:39.506Z,641
2022-08-11T09:53:20.825Z,360
2022-08-11T09:58:02.127Z,343
2022-08-11T10:02:44.429Z,556
2022-08-11T10:07:26.683Z,1023
2022-08-11T10:12:08.993Z,2176
2022-08-11T10:16:51.302Z,2733
2022-08-11T10:21:33.508Z,2711
2022-08-11T10:26:15.827Z,3031
2022-08-11T10:30:58.151Z,2970
2022-08-11T10:35:40.431Z,2998
2022-08-11T10:40:22.638Z,2896
2022-08-11T10:45:04.970Z,2840
2022-08-11T10:49:47.259Z,3054
2022-08-11T10:54:29.564Z,3054
2022-08-11T10:59:10.870Z,3099
2022-08-11T11:03:53.076Z,2711
2022-08-11T11:08:35.389Z,1974
2022-08-11T11:13:17.699Z,2446
2022-08-11T11:18:00.003Z,3121
2022-08-11T11:22:42.206Z,3037
2022-08-11T11:27:24.520Z,2767
2022-08-11T11:32:05.830Z,2683
2022-08-11T11:36:47.129Z,2964
2022-08-11T11:41:28.437Z,3206
2022-08-11T11:46:10.751Z,3493
2022-08-11T11:50:52.055Z,3172
2022-08-11T11:55:34.358Z,3189
2022-08-11T12:00:16.665Z,2902
2022-08-11T12:04:58.875Z,2829
2022-08-11T12:09:41.211Z,2801
2022-08-11T12:14:23.494Z,2559
2022-08-11T12:19:05.808Z,2210
2022-08-11T12:23:48.114Z,3026
2022-08-11T12:28:30.318Z,3144
2022-08-11T12:33:12.629Z,3099
2022-08-11T12:37:54.936Z,3088
2022-08-11T12:42:37.244Z,2981
2022-08-11T12:47:19.450Z,2778
2022-08-11T12:52:00.764Z,2660
2022-08-11T12:56:43.073Z,2784
2022-08-11T13:01:25.374Z,2576
2022-08-11T13:06:07.686Z,2806
2022-08-11T13:10:49.996Z,2846
2022-08-11T13:15:32.202Z,2902
2022-08-11T13:20:14.518Z,2700
2022-08-11T13:24:55.817Z,3003
2022-08-11T13:29:37.121Z,2531
2022-08-11T13:34:19.435Z,2784
2022-08-11T13:39:01.747Z,2171
2022-08-11T13:43:44.048Z,2480
2022-08-11T13:48:26.354Z,2638
2022-08-11T13:53:08.569Z,2598
2022-08-11T13:57:50.877Z,2053
2022-08-11T14:02:33.181Z,2311
2022-08-11T14:07:15.495Z,1850
2022-08-11T14:11:57.729Z,2098
2022-08-11T14:16:40.018Z,2278
2022-08-11T14:21:22.330Z,2019
2022-08-11T14:26:04.672Z,1580
2022-08-11T14:30:45.945Z,2047
2022-08-11T14:35:28.161Z,2306
2022-08-11T14:40:10.461Z,1974
2022-08-11T14:44:52.775Z,1389
2022-08-11T14:49:35.078Z,2396
2022-08-11T14:54:17.382Z,1901
2022-08-11T14:58:59.597Z,2154
2022-08-11T15:03:40.901Z,2013
2022-08-11T15:08:22.215Z,1940
2022-08-11T15:13:03.521Z,1726
2022-08-11T15:17:44.819Z,478
2022-08-11T15:22:26.131Z,466
2022-08-11T15:27:07.470Z,461
2022-08-11T15:31:49.747Z,399
2022-08-11T15:36:32.049Z,562
2022-08-11T15:41:14.364Z,742
2022-08-11T15:45:56.569Z,1659
2022-08-11T15:50:38.880Z,1434
2022-08-11T15:55:21.189Z,1254
2022-08-11T16:00:03.497Z,1383
2022-08-11T16:04:45.706Z,1383
2022-08-11T16:09:28.014Z,1276
2022-08-11T16:14:10.317Z,1186
2022-08-11T16:18:52.524Z,1192
2022-08-11T16:23:34.831Z,1091
2022-08-11T16:28:16.142Z,961
2022-08-11T16:32:58.451Z,855
2022-08-11T16:37:40.760Z,753
2022-08-11T16:42:22.963Z,703
2022-08-11T16:47:05.275Z,663
2022-08-11T16:51:47.580Z,573
2022-08-11T16:56:29.888Z,433
2022-08-11T17:01:11.146Z,461
2022-08-11T17:05:52.462Z,618
2022-08-11T17:10:33.756Z,585
2022-08-11T17:15:15.063Z,495
2022-08-11T17:19:57.373Z,376
2022-08-11T17:24:39.579Z,320
2022-08-11T17:29:21.886Z,230
2022-08-11T17:34:04.198Z,208
2022-08-11T17:38:46.506Z,180
2022-08-11T17:43:28.714Z,157
2022-08-11T17:48:11.047Z,140
2022-08-11T17:52:53.344Z,123
2022-08-11T17:57:35.541Z,95
2022-08-11T18:02:17.843Z,73
2022-08-11T18:07:00.160Z,61
2022-08-11T18:11:42.467Z,50
2022-08-11T18:16:23.671Z,39
2022-08-11T18:21:06.028Z,28
2022-08-11T18:25:48.240Z,22
2022-08-11T18:30:30.545Z,16
2022-08-11T18:35:12.850Z,11
2022-08-11T18:39:55.163Z,5
2022-08-11T18:44:37.376Z,5
2022-08-11T18:49:18.680Z,0
2022-08-11T18:54:00.045Z,0
2022-08-11T18:58:41.353Z,0
2022-08-11T19:03:22.649Z,0
2022-08-11T19:08:03.961Z,0
2022-08-11T19:12:45.163Z,0
2022-08-11T19:17:27.471Z,0
2022-08-11T19:22:09.780Z,0
2022-08-11T19:26:52.092Z,0
2022-08-11T19:31:34.298Z,0
2022-08-11T19:36:16.606Z,0
2022-08-11T19:40:58.916Z,0
2022-08-11T19:45:41.148Z,0
2022-08-11T19:50:23.433Z,0
2022-08-11T19:55:05.740Z,0
2022-08-11T19:59:47.951Z,0
2022-08-11T20:04:30.254Z,0
2022-08-11T20:09:12.565Z,0
2022-08-11T20:13:53.875Z,0
2022-08-11T20:18:36.086Z,0
2022-08-11T20:23:18.399Z,0
2022-08-11T20:28:00.697Z,0
2022-08-11T20:32:42.905Z,0
2022-08-11T20:37:25.215Z,0
2022-08-11T20:42:07.522Z,0
2022-08-11T20:46:48.788Z,0
2022-08-11T20:51:30.129Z,0
2022-08-11T20:56:11.407Z,0
2022-08-11T21:00:52.700Z,0
2022-08-11T21:05:34.007Z,0
2022-08-11T21:10:15.332Z,0
2022-08-11T21:14:57.664Z,0
2022-08-11T21:19:54.446Z,0
2022-08-11T21:24:22.144Z,0
2022-08-11T21:29:04.447Z,0
2022-08-11T21:33:46.751Z,0
2022-08-11T21:38:28.962Z,0
2022-08-11T21:43:11.272Z,0
2022-08-11T21:47:53.580Z,0
2022-08-11T21:52:35.887Z,0
2022-08-11T21:57:18.099Z,0
2022-08-11T22:02:00.405Z,0
2022-08-11T22:06:42.711Z,0
2022-08-11T22:11:23.975Z,0
2022-08-11T22:16:06.282Z,0
2022-08-11T22:20:48.488Z,0
2022-08-11T22:25:30.802Z,0
2022-08-11T22:30:13.102Z,0
2022-08-11T22:34:55.414Z,0
2022-08-11T22:39:37.617Z,0
2022-08-11T22:44:18.926Z,0
2022-08-11T22:49:00.234Z,0
2022-08-11T22:53:42.540Z,0
2022-08-11T22:58:24.851Z,0
2022-08-11T23:03:07.054Z,0
2022-08-11T23:07:49.368Z,0
2022-08-11T23:12:31.675Z,0
2022-08-11T23:17:13.885Z,0
2022-08-11T23:21:56.189Z,0
2022-08-11T23:26:38.501Z,0
2022-08-11T23:31:20.812Z,0
2022-08-11T23:36:03.016Z,0
2022-08-11T23:40:45.335Z,0
2022-08-11T23:45:27.628Z,0
2022-08-11T23:50:09.839Z,0
2022-08-11T23:54:51.141Z,0
2022-08-11T23:59:33.450Z,0
